Details for Delta Airlines at KJFK




Go Back


Latest METAR
Local Time

KJFK 220851Z 24011KT 10SM FEW018 SCT031 SCT110 BKN170 23/22 A2997 RMK AO2 RAB05E17 SLP147 P0000 60000 T02280222 53002
22/09/2018, 05:34:38

Description
Results
Delta Airlines Logo
Number of Pilots based at KJFK
1 Pilots Based here
Number of Delta Airlines Flights Departed from KJFK
13 Flights Departed
Number of Delta Airlines Flights Arrived at KJFK
10 Flights Arrived
Number of Delta Airlines Schedules Departing from KJFK
485 Schedules
Number of Delta Airlines Schedules Arriving at KJFK
389 Schedules
Number of Delta Airlines Schedules Departing from KJFK availible today
210 Schedules Today
Number of Delta Airlines Schedules Arriving at KJFK availible today
190 Schedules Today
Average Landing Rate at KJFK
-216 fpm
Delta Airlines Average Landing Rate at KJFK
-132 fpm
Total Fuel Purchased at KJFK by Delta Airlines
82,787.47 kgs / 182,513.26 lbs

Pilots Based at KJFK


Pilot ID
Pilot Name
Pilot Rank
No. of Flights
No. of Flying Hours
Jonathan Mcrea
7
11.18
Content